createdAt,value
2022-10-18T00:03:44.700Z,0.05
2022-10-18T00:08:43.964Z,0.05
2022-10-18T00:13:43.838Z,0.05
2022-10-18T00:18:43.429Z,0.05
2022-10-18T00:23:42.793Z,0.05
2022-10-18T00:28:42.611Z,0.05
2022-10-18T00:33:42.022Z,0.05
2022-10-18T00:38:42.548Z,0.05
2022-10-18T00:43:42.372Z,0.05
2022-10-18T00:48:39.623Z,0.05
2022-10-18T00:53:38.846Z,0.05
2022-10-18T00:58:37.744Z,0.05
2022-10-18T00:59:58.929Z,0.05
2022-10-18T01:04:58.518Z,0.05
2022-10-18T01:09:59.053Z,0.04
2022-10-18T01:14:58.261Z,0.05
2022-10-18T01:19:58.317Z,0.05
2022-10-18T01:24:56.196Z,0.05
2022-10-18T01:29:55.499Z,0.05
2022-10-18T01:34:54.672Z,0.05
2022-10-18T01:39:54.348Z,0.04
2022-10-18T01:44:53.082Z,0.05
2022-10-18T01:49:52.574Z,0.05
2022-10-18T01:54:52.250Z,0.05
2022-10-18T01:58:57.751Z,0.05
2022-10-18T02:03:57.510Z,0.05
2022-10-18T02:08:56.691Z,0.05
2022-10-18T02:13:56.369Z,0.05
2022-10-18T02:18:55.285Z,0.05
2022-10-18T02:23:57.572Z,0.05
2022-10-18T02:28:54.184Z,0.05
2022-10-18T02:33:53.483Z,0.05
2022-10-18T02:38:52.860Z,0.05
2022-10-18T02:43:52.367Z,0.05
2022-10-18T02:48:51.791Z,0.05
2022-10-18T02:53:51.584Z,0.05
2022-10-18T02:58:51.050Z,0.05
2022-10-18T03:03:52.046Z,0.05
2022-10-18T03:08:48.695Z,0.05
2022-10-18T03:13:48.876Z,0.05
2022-10-18T03:18:47.783Z,0.05
2022-10-18T03:23:47.609Z,0.05
2022-10-18T03:28:45.868Z,0.05
2022-10-18T03:33:45.345Z,0.05
2022-10-18T03:38:45.317Z,0.05
2022-10-18T03:43:44.856Z,0.05
2022-10-18T03:48:43.827Z,0.05
2022-10-18T03:53:43.601Z,0.05
2022-10-18T03:58:43.255Z,0.05
2022-10-18T04:03:42.843Z,0.05
2022-10-18T04:08:44.636Z,0.05
2022-10-18T04:13:40.283Z,0.05
2022-10-18T04:18:39.828Z,0.05
2022-10-18T04:23:40.834Z,0.05
2022-10-18T04:28:38.754Z,0.05
2022-10-18T04:33:38.105Z,0.05
2022-10-18T04:38:37.879Z,0.05
2022-10-18T04:43:37.686Z,0.05
2022-10-18T04:48:38.514Z,0.05
2022-10-18T04:53:36.250Z,0.05
2022-10-18T04:58:35.088Z,0.05
2022-10-18T04:59:56.465Z,0.05
2022-10-18T05:04:56.548Z,0.05
2022-10-18T05:09:54.419Z,0.04
2022-10-18T05:14:56.924Z,0.05
2022-10-18T05:19:53.807Z,0.05
2022-10-18T05:24:53.282Z,0.05
2022-10-18T05:29:52.565Z,0.05
2022-10-18T05:34:52.196Z,0.06
2022-10-18T05:39:52.217Z,0.07
2022-10-18T05:44:51.528Z,0.09
2022-10-18T05:49:52.224Z,0.12
2022-10-18T05:54:48.876Z,0.16
2022-10-18T05:59:15.344Z,0.19
2022-10-18T06:04:14.867Z,0.21
2022-10-18T06:09:14.154Z,0.25
2022-10-18T06:14:13.568Z,0.27
2022-10-18T06:19:13.108Z,0.31
2022-10-18T06:24:12.838Z,0.47
2022-10-18T06:29:14.074Z,0.46
2022-10-18T06:34:10.397Z,0.57
2022-10-18T06:39:10.165Z,0.64
2022-10-18T06:44:10.299Z,0.58
2022-10-18T06:49:10.705Z,0.6
2022-10-18T06:54:20.669Z,0.89
2022-10-18T06:58:54.171Z,0.75
2022-10-18T07:03:54.027Z,0.87
2022-10-18T07:08:53.907Z,1.21
2022-10-18T07:13:52.993Z,0.86
2022-10-18T07:18:52.282Z,1.11
2022-10-18T07:23:52.331Z,1.01
2022-10-18T07:28:51.998Z,0.95
2022-10-18T07:33:49.464Z,1.23
2022-10-18T07:38:49.201Z,1
2022-10-18T07:43:49.663Z,0.94
2022-10-18T07:48:48.683Z,1.34
2022-10-18T07:53:48.124Z,2.29
2022-10-18T07:58:47.315Z,2.46
2022-10-18T08:03:47.128Z,1.96
2022-10-18T08:08:46.154Z,3.21
2022-10-18T08:13:46.660Z,4.8
2022-10-18T08:18:43.791Z,4.73
2022-10-18T08:23:44.003Z,5.4
2022-10-18T08:29:24.065Z,5.84
2022-10-18T08:34:40.494Z,5.68
2022-10-18T08:38:41.769Z,6.55
2022-10-18T08:43:41.315Z,6.53
2022-10-18T08:48:41.497Z,5.68
2022-10-18T08:53:42.324Z,6.2
2022-10-18T08:58:39.871Z,6.39
2022-10-18T09:03:39.833Z,4.73
2022-10-18T09:08:39.533Z,3.97
2022-10-18T09:13:39.437Z,3.09
2022-10-18T09:18:38.154Z,2.53
2022-10-18T09:23:37.562Z,2.9
2022-10-18T09:28:38.089Z,2.9
2022-10-18T09:33:36.939Z,3.93
2022-10-18T09:38:36.589Z,5.86
2022-10-18T09:43:35.765Z,6.89
2022-10-18T09:48:35.674Z,6.5
2022-10-18T09:53:35.177Z,6.58
2022-10-18T09:58:35.883Z,7.52
2022-10-18T09:59:56.176Z,7.87
2022-10-18T10:04:56.373Z,8.63
2022-10-18T10:09:55.055Z,8.75
2022-10-18T10:14:54.778Z,8.46
2022-10-18T10:19:53.225Z,12.11
2022-10-18T10:24:53.061Z,8.47
2022-10-18T10:29:53.922Z,8.6
2022-10-18T10:34:52.787Z,16.12
2022-10-18T10:40:23.019Z,12.83
2022-10-18T10:44:52.152Z,9.45
2022-10-18T10:49:51.900Z,10.9
2022-10-18T10:55:23.486Z,17.64
2022-10-18T10:59:13.859Z,16.53
2022-10-18T11:04:14.125Z,15.4
2022-10-18T11:09:13.805Z,15.06
2022-10-18T11:14:28.692Z,13.25
2022-10-18T11:19:12.011Z,5.88
2022-10-18T11:24:11.821Z,7.58
2022-10-18T11:29:11.465Z,5.14
2022-10-18T11:34:12.082Z,6.69
2022-10-18T11:39:08.170Z,6.84
2022-10-18T11:44:07.289Z,15.1
2022-10-18T11:49:07.299Z,15.23
2022-10-18T11:54:07.007Z,15.14
2022-10-18T11:58:53.475Z,14.79
2022-10-18T12:03:53.729Z,9.39
2022-10-18T12:08:54.178Z,8.78
2022-10-18T12:13:53.712Z,5.34
2022-10-18T12:18:54.903Z,3.88
2022-10-18T12:23:50.868Z,4.64
2022-10-18T12:28:50.802Z,3.88
2022-10-18T12:33:49.389Z,3.73
2022-10-18T12:38:48.670Z,3.8
2022-10-18T12:43:47.645Z,3.8
2022-10-18T12:48:47.925Z,4.59
2022-10-18T12:53:46.376Z,5.21
2022-10-18T12:58:47.169Z,5.58
2022-10-18T13:03:44.170Z,5.63
2022-10-18T13:08:44.278Z,4.09
2022-10-18T13:13:43.031Z,4.04
2022-10-18T13:18:42.953Z,4.6
2022-10-18T13:23:40.979Z,5.08
2022-10-18T13:28:41.015Z,5.33
2022-10-18T13:33:40.408Z,5.13
2022-10-18T13:38:39.918Z,4.64
2022-10-18T13:43:39.282Z,3.95
2022-10-18T13:48:38.998Z,3.69
2022-10-18T13:53:38.173Z,3.7
2022-10-18T13:59:14.222Z,3.63
2022-10-18T13:59:58.982Z,3.53
2022-10-18T14:05:26.989Z,3.33
2022-10-18T14:10:05.614Z,3.36
2022-10-18T14:14:57.853Z,3.25
2022-10-18T14:19:56.900Z,2.89
2022-10-18T14:24:56.587Z,2.55
2022-10-18T14:29:56.092Z,2.02
2022-10-18T14:35:33.813Z,1.58
2022-10-18T14:39:56.259Z,1.5
2022-10-18T14:44:58.092Z,1.29
2022-10-18T14:49:53.267Z,1.05
2022-10-18T14:54:52.415Z,1.22
2022-10-18T14:58:59.043Z,1.06
2022-10-18T15:03:57.689Z,0.85
2022-10-18T15:08:57.011Z,0.93
2022-10-18T15:13:57.453Z,0.89
2022-10-18T15:18:56.473Z,0.8
2022-10-18T15:23:56.057Z,0.74
2022-10-18T15:28:55.507Z,0.71
2022-10-18T15:33:55.126Z,0.6
2022-10-18T15:38:55.068Z,0.53
2022-10-18T15:43:53.590Z,0.47
2022-10-18T15:48:53.223Z,0.37
2022-10-18T15:53:53.482Z,0.31
2022-10-18T15:58:52.280Z,0.26
2022-10-18T16:03:51.837Z,0.29
2022-10-18T16:08:50.637Z,0.26
2022-10-18T16:13:52.165Z,0.21
2022-10-18T16:18:49.566Z,0.16
2022-10-18T16:23:51.539Z,0.12
2022-10-18T16:28:47.873Z,0.09
2022-10-18T16:33:47.548Z,0.08
2022-10-18T16:38:46.290Z,0.07
2022-10-18T16:43:46.033Z,0.06
2022-10-18T16:48:44.433Z,0.06
2022-10-18T16:53:44.248Z,0.05
2022-10-18T16:58:43.988Z,0.05
2022-10-18T17:03:43.620Z,0.05
2022-10-18T17:08:42.894Z,0.05
2022-10-18T17:13:42.536Z,0.05
2022-10-18T17:18:42.314Z,0.05
2022-10-18T17:23:41.907Z,0.05
2022-10-18T17:28:40.156Z,0.05
2022-10-18T17:33:39.291Z,0.05
2022-10-18T17:38:38.997Z,0.05
2022-10-18T17:48:37.596Z,0.05
2022-10-18T17:53:37.187Z,0.05
2022-10-18T17:58:36.852Z,0.05
2022-10-18T17:59:59.005Z,0.05
2022-10-18T18:05:49.499Z,0.05
2022-10-18T18:09:58.225Z,0.04
2022-10-18T18:14:57.992Z,0.05
2022-10-18T18:19:58.672Z,0.05
2022-10-18T18:24:55.548Z,0.05
2022-10-18T18:29:55.700Z,0.05
2022-10-18T18:34:55.610Z,0.05
2022-10-18T18:39:55.324Z,0.04
2022-10-18T18:44:53.578Z,0.05
2022-10-18T18:49:53.182Z,0.05
2022-10-18T18:54:52.590Z,0.05
2022-10-18T18:59:28.912Z,0.04
2022-10-18T19:04:15.517Z,0.05
2022-10-18T19:09:15.480Z,0.05
2022-10-18T19:14:15.118Z,0.05
2022-10-18T19:19:15.240Z,0.05
2022-10-18T19:24:12.596Z,0.05
2022-10-18T19:29:12.913Z,0.05
2022-10-18T19:34:11.497Z,0.05
2022-10-18T19:39:11.351Z,0.05
2022-10-18T19:44:09.853Z,0.05
2022-10-18T19:49:09.114Z,0.05
2022-10-18T19:54:08.811Z,0.05
2022-10-18T19:58:56.246Z,0.05
2022-10-18T20:03:55.621Z,0.05
2022-10-18T20:08:54.996Z,0.05
2022-10-18T20:13:55.516Z,0.05
2022-10-18T20:18:54.802Z,0.05
2022-10-18T20:23:55.486Z,0.05
2022-10-18T20:28:52.664Z,0.05
2022-10-18T20:33:51.909Z,0.05
2022-10-18T20:38:51.432Z,0.05
2022-10-18T20:43:50.537Z,0.05
2022-10-18T20:48:49.779Z,0.05
2022-10-18T20:53:49.935Z,0.05
2022-10-18T20:58:48.732Z,0.05
2022-10-18T21:03:49.712Z,0.05
2022-10-18T21:08:47.047Z,0.05
2022-10-18T21:13:46.956Z,0.05
2022-10-18T21:18:46.750Z,0.05
2022-10-18T21:23:46.312Z,0.05
2022-10-18T21:28:44.674Z,0.05
2022-10-18T21:33:43.876Z,0.05
2022-10-18T21:38:43.778Z,0.05
2022-10-18T21:43:43.480Z,0.05
2022-10-18T21:48:42.457Z,0.05
2022-10-18T21:53:42.390Z,0.05
2022-10-18T21:58:41.960Z,0.05
2022-10-18T22:03:41.274Z,0.05
2022-10-18T22:08:41.939Z,0.05
2022-10-18T22:13:38.631Z,0.05
2022-10-18T22:18:38.908Z,0.05
2022-10-18T22:23:38.154Z,0.05
2022-10-18T22:28:37.857Z,0.05
2022-10-18T22:33:39.774Z,0.05
2022-10-18T22:38:36.895Z,0.05
2022-10-18T22:43:36.128Z,0.05
2022-10-18T22:48:37.065Z,0.05
2022-10-18T22:53:34.058Z,0.05
2022-10-18T22:58:34.352Z,0.05
2022-10-18T22:59:55.333Z,0.05
2022-10-18T23:04:55.121Z,0.05
2022-10-18T23:09:53.298Z,0.04
2022-10-18T23:14:53.501Z,0.05
2022-10-18T23:19:53.318Z,0.05
2022-10-18T23:24:53.283Z,0.05
2022-10-18T23:29:52.052Z,0.05
2022-10-18T23:34:51.439Z,0.05
2022-10-18T23:39:50.994Z,0.05
2022-10-18T23:44:50.443Z,0.05
2022-10-18T23:49:48.356Z,0.05
2022-10-18T23:54:48.072Z,0.05
2022-10-18T23:59:13.839Z,0.05
